New London, OH (44851)

4:54 AM EST on December 11, 2016 (GMT -0500)
KOHNEWLO2 | | Change Station
Active Advisory: Winter Weather Advisory Active Notice: Public Information Statement

Elev 1004 ft 41.09 °N, 82.44 °W | Updated 12 minutes ago

Snow
Snow
22.2 °F
Feels Like 12 °F
N
9.0
Wind Variable Wind from South
Gusts 9.0 mph

Today
High -- | Low -- °F
--% Chance of Precip.
Yesterday
High -- | Low -- °F
Precip. -- in
Pressure 30.34 in
Visibility 1.8 miles
Clouds Overcast 2900 ft
Windchill 12 °F
Dew Point 20 °F
Humidity 91%
Rainfall 0.00 in
Snow Depth Not available.
7:45 AM 5:01 PM
Waxing Gibbous, 90% visible
SPECI KMFD 110935Z AUTO 15005KT 1 3/4SM -SN BR OVC029 M06/M07 A3034 RMK AO2 P0001 T10561067
Pressure 30.34 in
Visibility 1.8 miles
Clouds Overcast 2900 ft
Windchill 12 °F
Dew Point 20 °F
Humidity 91%
Rainfall 0.00 in
Snow Depth Not available.
7:45 AM 5:01 PM
Waxing Gibbous, 90% visible
SPECI KMFD 110935Z AUTO 15005KT 1 3/4SM -SN BR OVC029 M06/M07 A3034 RMK AO2 P0001 T10561067

10-Day Weather Forecast

Almanac

Astronomy

Dec. 11, 2016 Rise Set
Actual Time
Civil Twilight
Nautical Twilight
Astronomical Twilight
Moon
Length of Visible Light
Length of Day
Tomorrow will be .
, % of the Moon is Illuminated

Today's Extremes

State Highs State Lows

Community

WunderPhotos

Upload Photos

1,956,704 photos uploaded!

WunderBlog® & News

Nearby

Air Quality

  Air Quality AQ Index Pollutant
Not available.

Snow Depth

Station Depth Elevation

Earthquake Activity

City Distance Mag. Time & Date
Minimum magnitude displayed is 2.5.

Coastal Water Temperatures

Place Temperature

Stations

Nearby Weather Stations

Station Location Temp. Windchill Dew Point Humidity Wind Precip. Elev Updated Type
                   

Watches & Warnings

Winter Weather Advisory
Issued: 3:03 AM EST Dec. 11, 2016 – National Weather Service

... Winter Weather Advisory remains in effect until 4 am EST
Monday...

* accumulations... light to moderate snow will result in total
accumulation of 3 to 5 inches by late tonight.

* Timing... occasional snow will occur until late tonight. The snow
will likely mix with or change to rain by evening.

* Impacts... snow covered roads and walkways. Hazardous driving
conditions on untreated roads with reduced visibilities.

* Winds... south 10 to 20 mph with gusts up to 25 mph today
becoming southwest late tonight.

* Temperatures... in the low to mid 20s rising into the low to mid
30s by early tonight.

Precautionary/preparedness actions...

A Winter Weather Advisory for snow is issued when moderate
amounts of accumulating snow will cause travel difficulties. Be
prepared for snow covered roads and limited visibilities... and
use caution while driving.